sensor_id;sensor_type;location;lat;lon;timestamp;pressure;altitude;pressure_sealevel;temperature;humidity
38852;BME280;24605;50.092;9.182;2023-07-13T00:01:29;97800.78;;;18.84;55.84
38852;BME280;24605;50.092;9.182;2023-07-13T00:03:59;97821.88;;;18.98;55.93
38852;BME280;24605;50.092;9.182;2023-07-13T00:06:26;97823.78;;;18.90;56.28
38852;BME280;24605;50.092;9.182;2023-07-13T00:08:55;97831.16;;;18.88;56.34
38852;BME280;24605;50.092;9.182;2023-07-13T00:11:21;97833.47;;;18.85;56.07
38852;BME280;24605;50.092;9.182;2023-07-13T00:13:48;97841.66;;;18.83;56.01
38852;BME280;24605;50.092;9.182;2023-07-13T00:16:14;97841.78;;;18.88;56.34
38852;BME280;24605;50.092;9.182;2023-07-13T00:18:41;97844.09;;;18.85;56.23
38852;BME280;24605;50.092;9.182;2023-07-13T00:21:09;97837.81;;;18.79;56.71
38852;BME280;24605;50.092;9.182;2023-07-13T00:23:37;97821.53;;;18.75;55.83
38852;BME280;24605;50.092;9.182;2023-07-13T00:26:06;97832.63;;;18.72;55.88
38852;BME280;24605;50.092;9.182;2023-07-13T00:28:34;97835.88;;;18.56;55.80
38852;BME280;24605;50.092;9.182;2023-07-13T00:31:00;97838.44;;;18.62;55.51
38852;BME280;24605;50.092;9.182;2023-07-13T00:33:27;97846.41;;;18.62;55.44
38852;BME280;24605;50.092;9.182;2023-07-13T00:35:54;97844.06;;;18.54;55.26
38852;BME280;24605;50.092;9.182;2023-07-13T00:38:22;97850.25;;;18.67;54.97
38852;BME280;24605;50.092;9.182;2023-07-13T00:40:49;97839.28;;;18.63;55.05
38852;BME280;24605;50.092;9.182;2023-07-13T00:43:19;97843.31;;;18.66;55.13
38852;BME280;24605;50.092;9.182;2023-07-13T00:46:13;97846.09;;;18.71;55.28
38852;BME280;24605;50.092;9.182;2023-07-13T00:48:41;97844.00;;;18.61;56.01
38852;BME280;24605;50.092;9.182;2023-07-13T00:51:10;97842.97;;;18.62;56.65
38852;BME280;24605;50.092;9.182;2023-07-13T00:53:39;97835.66;;;18.57;56.76
38852;BME280;24605;50.092;9.182;2023-07-13T00:56:06;97841.28;;;18.49;57.16
38852;BME280;24605;50.092;9.182;2023-07-13T00:58:33;97832.72;;;18.47;57.20
38852;BME280;24605;50.092;9.182;2023-07-13T01:01:00;97840.69;;;18.47;57.39
38852;BME280;24605;50.092;9.182;2023-07-13T01:03:26;97825.41;;;18.42;57.00
38852;BME280;24605;50.092;9.182;2023-07-13T01:05:54;97834.78;;;18.45;57.27
38852;BME280;24605;50.092;9.182;2023-07-13T01:08:21;97831.63;;;18.36;57.75
38852;BME280;24605;50.092;9.182;2023-07-13T01:10:54;97833.25;;;18.37;57.78
38852;BME280;24605;50.092;9.182;2023-07-13T01:13:21;97830.31;;;18.27;58.21
38852;BME280;24605;50.092;9.182;2023-07-13T01:15:50;97838.47;;;18.25;58.58
38852;BME280;24605;50.092;9.182;2023-07-13T01:18:20;97842.00;;;18.19;58.15
38852;BME280;24605;50.092;9.182;2023-07-13T01:20:51;97847.09;;;18.21;58.66
38852;BME280;24605;50.092;9.182;2023-07-13T01:23:18;97845.63;;;18.06;59.05
38852;BME280;24605;50.092;9.182;2023-07-13T01:25:45;97844.81;;;18.06;59.23
38852;BME280;24605;50.092;9.182;2023-07-13T01:28:11;97838.97;;;17.97;59.52
38852;BME280;24605;50.092;9.182;2023-07-13T01:30:39;97834.75;;;17.89;60.12
38852;BME280;24605;50.092;9.182;2023-07-13T01:33:05;97844.00;;;17.80;60.96
38852;BME280;24605;50.092;9.182;2023-07-13T01:35:32;97848.53;;;17.73;61.61
38852;BME280;24605;50.092;9.182;2023-07-13T01:38:00;97847.66;;;17.60;61.89
38852;BME280;24605;50.092;9.182;2023-07-13T01:40:28;97846.63;;;17.61;61.71
38852;BME280;24605;50.092;9.182;2023-07-13T01:42:55;97823.97;;;17.40;62.01
38852;BME280;24605;50.092;9.182;2023-07-13T01:45:22;97841.41;;;17.48;62.53
38852;BME280;24605;50.092;9.182;2023-07-13T01:47:48;97847.97;;;17.45;62.58
38852;BME280;24605;50.092;9.182;2023-07-13T01:50:15;97846.38;;;17.37;63.11
38852;BME280;24605;50.092;9.182;2023-07-13T01:52:42;97849.63;;;17.39;63.12
38852;BME280;24605;50.092;9.182;2023-07-13T01:55:09;97849.09;;;17.31;63.49
38852;BME280;24605;50.092;9.182;2023-07-13T01:57:36;97853.41;;;17.25;63.55
38852;BME280;24605;50.092;9.182;2023-07-13T02:00:04;97858.09;;;17.23;64.14
38852;BME280;24605;50.092;9.182;2023-07-13T02:02:32;97862.63;;;17.16;64.45
38852;BME280;24605;50.092;9.182;2023-07-13T02:04:58;97858.78;;;17.12;64.36
38852;BME280;24605;50.092;9.182;2023-07-13T02:07:24;97862.69;;;17.02;65.18
38852;BME280;24605;50.092;9.182;2023-07-13T02:09:51;97819.25;;;16.71;65.26
38852;BME280;24605;50.092;9.182;2023-07-13T02:12:19;97851.56;;;16.94;65.43
38852;BME280;24605;50.092;9.182;2023-07-13T02:14:45;97861.91;;;17.02;65.40
38852;BME280;24605;50.092;9.182;2023-07-13T02:17:11;97861.53;;;16.85;65.61
38852;BME280;24605;50.092;9.182;2023-07-13T02:19:38;97871.28;;;16.98;65.17
38852;BME280;24605;50.092;9.182;2023-07-13T02:22:05;97859.50;;;16.94;64.48
38852;BME280;24605;50.092;9.182;2023-07-13T02:24:31;97868.66;;;16.91;65.27
38852;BME280;24605;50.092;9.182;2023-07-13T02:26:58;97866.25;;;16.83;65.33
38852;BME280;24605;50.092;9.182;2023-07-13T02:29:26;97870.72;;;16.82;65.44
38852;BME280;24605;50.092;9.182;2023-07-13T02:31:52;97872.19;;;16.78;65.27
38852;BME280;24605;50.092;9.182;2023-07-13T02:34:19;97880.13;;;16.78;65.45
38852;BME280;24605;50.092;9.182;2023-07-13T02:36:45;97882.31;;;16.88;65.11
38852;BME280;24605;50.092;9.182;2023-07-13T02:39:14;97861.53;;;16.85;64.96
38852;BME280;24605;50.092;9.182;2023-07-13T02:41:41;97878.06;;;16.80;65.44
38852;BME280;24605;50.092;9.182;2023-07-13T02:44:07;97863.50;;;16.64;65.96
38852;BME280;24605;50.092;9.182;2023-07-13T02:46:36;97882.81;;;16.71;66.14
38852;BME280;24605;50.092;9.182;2023-07-13T02:49:03;97889.72;;;16.72;65.94
38852;BME280;24605;50.092;9.182;2023-07-13T02:51:30;97896.19;;;16.76;65.51
38852;BME280;24605;50.092;9.182;2023-07-13T02:53:58;97887.47;;;16.69;65.89
38852;BME280;24605;50.092;9.182;2023-07-13T02:56:26;97892.59;;;16.64;66.11
38852;BME280;24605;50.092;9.182;2023-07-13T02:58:53;97890.38;;;16.61;66.32
38852;BME280;24605;50.092;9.182;2023-07-13T03:01:21;97896.44;;;16.68;66.09
38852;BME280;24605;50.092;9.182;2023-07-13T03:03:49;97894.81;;;16.67;66.32
38852;BME280;24605;50.092;9.182;2023-07-13T03:06:16;97893.63;;;16.63;66.05
38852;BME280;24605;50.092;9.182;2023-07-13T03:08:43;97896.06;;;16.65;66.37
38852;BME280;24605;50.092;9.182;2023-07-13T03:11:12;97894.25;;;16.58;66.48
38852;BME280;24605;50.092;9.182;2023-07-13T03:13:40;97901.34;;;16.58;66.65
38852;BME280;24605;50.092;9.182;2023-07-13T03:16:07;97901.34;;;16.65;66.00
38852;BME280;24605;50.092;9.182;2023-07-13T03:18:35;97904.22;;;16.63;66.30
38852;BME280;24605;50.092;9.182;2023-07-13T03:21:04;97898.09;;;16.63;66.30
38852;BME280;24605;50.092;9.182;2023-07-13T03:23:31;97852.59;;;16.34;65.96
38852;BME280;24605;50.092;9.182;2023-07-13T03:26:02;97883.50;;;16.40;66.24
38852;BME280;24605;50.092;9.182;2023-07-13T03:28:29;97903.22;;;16.44;66.63
38852;BME280;24605;50.092;9.182;2023-07-13T03:31:00;97903.78;;;16.66;65.58
38852;BME280;24605;50.092;9.182;2023-07-13T03:33:26;97906.41;;;16.73;65.45
38852;BME280;24605;50.092;9.182;2023-07-13T03:35:53;97909.88;;;16.73;65.50
38852;BME280;24605;50.092;9.182;2023-07-13T03:38:21;97904.59;;;16.67;65.39
38852;BME280;24605;50.092;9.182;2023-07-13T03:40:47;97910.31;;;16.64;65.22
38852;BME280;24605;50.092;9.182;2023-07-13T03:43:14;97890.03;;;16.37;66.48
38852;BME280;24605;50.092;9.182;2023-07-13T03:45:40;97905.09;;;16.37;66.57
38852;BME280;24605;50.092;9.182;2023-07-13T03:48:07;97915.28;;;16.33;66.90
38852;BME280;24605;50.092;9.182;2023-07-13T03:50:33;97900.06;;;16.15;67.15
38852;BME280;24605;50.092;9.182;2023-07-13T03:53:00;97922.41;;;16.26;67.23
38852;BME280;24605;50.092;9.182;2023-07-13T03:55:28;97919.59;;;16.21;67.64
38852;BME280;24605;50.092;9.182;2023-07-13T03:57:59;97887.66;;;15.95;67.22
38852;BME280;24605;50.092;9.182;2023-07-13T04:00:26;97924.06;;;16.07;67.23
38852;BME280;24605;50.092;9.182;2023-07-13T04:02:53;97927.13;;;16.10;67.51
38852;BME280;24605;50.092;9.182;2023-07-13T04:05:19;97925.06;;;16.19;66.91
38852;BME280;24605;50.092;9.182;2023-07-13T04:07:46;97919.38;;;16.09;67.29
38852;BME280;24605;50.092;9.182;2023-07-13T04:10:12;97930.38;;;16.06;67.63
38852;BME280;24605;50.092;9.182;2023-07-13T04:12:40;97924.47;;;16.10;67.67
38852;BME280;24605;50.092;9.182;2023-07-13T04:15:07;97927.09;;;16.37;66.18
38852;BME280;24605;50.092;9.182;2023-07-13T04:17:34;97934.44;;;16.22;66.64
38852;BME280;24605;50.092;9.182;2023-07-13T04:20:01;97937.69;;;16.04;66.87
38852;BME280;24605;50.092;9.182;2023-07-13T04:22:27;97940.13;;;16.12;66.76
38852;BME280;24605;50.092;9.182;2023-07-13T04:24:54;97943.38;;;16.14;67.37
38852;BME280;24605;50.092;9.182;2023-07-13T04:27:20;97949.47;;;16.21;67.60
38852;BME280;24605;50.092;9.182;2023-07-13T04:29:48;97956.81;;;16.39;66.56
38852;BME280;24605;50.092;9.182;2023-07-13T04:32:14;97959.00;;;16.49;66.00
38852;BME280;24605;50.092;9.182;2023-07-13T04:34:41;97955.97;;;16.52;65.47
38852;BME280;24605;50.092;9.182;2023-07-13T04:37:07;97964.31;;;16.36;66.65
38852;BME280;24605;50.092;9.182;2023-07-13T04:39:34;97963.28;;;16.37;66.79
38852;BME280;24605;50.092;9.182;2023-07-13T04:42:01;97959.84;;;16.36;67.31
38852;BME280;24605;50.092;9.182;2023-07-13T04:44:27;97961.66;;;16.42;67.31
38852;BME280;24605;50.092;9.182;2023-07-13T04:46:55;97967.34;;;16.46;67.98
38852;BME280;24605;50.092;9.182;2023-07-13T04:49:21;97959.84;;;16.36;69.05
38852;BME280;24605;50.092;9.182;2023-07-13T04:51:48;97964.75;;;16.26;69.81
38852;BME280;24605;50.092;9.182;2023-07-13T04:54:14;97962.72;;;16.28;70.27
38852;BME280;24605;50.092;9.182;2023-07-13T04:56:41;97965.34;;;16.28;70.80
38852;BME280;24605;50.092;9.182;2023-07-13T04:59:07;97969.00;;;16.40;71.13
38852;BME280;24605;50.092;9.182;2023-07-13T05:01:34;97959.59;;;16.58;71.42
38852;BME280;24605;50.092;9.182;2023-07-13T05:04:02;97954.91;;;16.67;71.54
38852;BME280;24605;50.092;9.182;2023-07-13T05:06:28;97959.19;;;16.68;72.35
38852;BME280;24605;50.092;9.182;2023-07-13T05:08:55;97969.91;;;16.86;71.43
38852;BME280;24605;50.092;9.182;2023-07-13T05:11:22;97963.16;;;16.90;70.66
38852;BME280;24605;50.092;9.182;2023-07-13T05:13:48;97962.56;;;17.02;69.54
38852;BME280;24605;50.092;9.182;2023-07-13T05:16:15;97948.91;;;16.98;67.96
38852;BME280;24605;50.092;9.182;2023-07-13T05:18:41;97947.84;;;17.06;67.34
38852;BME280;24605;50.092;9.182;2023-07-13T05:21:10;97950.63;;;17.25;66.29
38852;BME280;24605;50.092;9.182;2023-07-13T05:23:38;97953.66;;;17.28;65.64
38852;BME280;24605;50.092;9.182;2023-07-13T05:26:07;97960.81;;;17.60;64.94
38852;BME280;24605;50.092;9.182;2023-07-13T05:28:33;97964.25;;;17.67;64.75
38852;BME280;24605;50.092;9.182;2023-07-13T05:31:00;97947.13;;;17.63;64.04
38852;BME280;24605;50.092;9.182;2023-07-13T05:33:27;97961.13;;;17.77;64.06
38852;BME280;24605;50.092;9.182;2023-07-13T05:35:53;97968.44;;;17.81;63.70
38852;BME280;24605;50.092;9.182;2023-07-13T05:38:22;97961.59;;;17.92;61.19
38852;BME280;24605;50.092;9.182;2023-07-13T05:40:49;97963.47;;;17.92;59.44
38852;BME280;24605;50.092;9.182;2023-07-13T05:43:16;97928.16;;;17.66;61.30
38852;BME280;24605;50.092;9.182;2023-07-13T05:45:42;97965.09;;;17.93;60.73
38852;BME280;24605;50.092;9.182;2023-07-13T05:48:08;97974.50;;;17.89;61.50
38852;BME280;24605;50.092;9.182;2023-07-13T05:50:35;97966.50;;;17.95;61.82
38852;BME280;24605;50.092;9.182;2023-07-13T05:53:01;97978.13;;;17.94;62.29
38852;BME280;24605;50.092;9.182;2023-07-13T05:55:29;97975.91;;;17.91;63.63
38852;BME280;24605;50.092;9.182;2023-07-13T05:57:56;97977.38;;;17.87;63.74
38852;BME280;24605;50.092;9.182;2023-07-13T06:00:23;97969.41;;;17.87;61.13
38852;BME280;24605;50.092;9.182;2023-07-13T06:02:50;97922.03;;;17.65;60.61
38852;BME280;24605;50.092;9.182;2023-07-13T06:05:16;97982.41;;;17.95;60.75
38852;BME280;24605;50.092;9.182;2023-07-13T06:07:43;97960.25;;;17.83;59.92
38852;BME280;24605;50.092;9.182;2023-07-13T06:10:10;97992.78;;;18.04;61.12
38852;BME280;24605;50.092;9.182;2023-07-13T06:12:38;97988.13;;;18.24;61.15
38852;BME280;24605;50.092;9.182;2023-07-13T06:15:06;97991.69;;;18.37;60.17
38852;BME280;24605;50.092;9.182;2023-07-13T06:17:32;97985.63;;;18.29;60.94
38852;BME280;24605;50.092;9.182;2023-07-13T06:19:59;97993.09;;;18.39;60.47
38852;BME280;24605;50.092;9.182;2023-07-13T06:22:25;97994.28;;;18.18;59.93
38852;BME280;24605;50.092;9.182;2023-07-13T06:24:52;97980.66;;;18.14;59.57
38852;BME280;24605;50.092;9.182;2023-07-13T06:27:18;98007.13;;;18.21;60.24
38852;BME280;24605;50.092;9.182;2023-07-13T06:29:46;97993.97;;;18.33;59.48
38852;BME280;24605;50.092;9.182;2023-07-13T06:32:13;98000.47;;;18.37;60.18
38852;BME280;24605;50.092;9.182;2023-07-13T06:34:39;98000.09;;;18.52;59.32
38852;BME280;24605;50.092;9.182;2023-07-13T06:37:06;98004.03;;;18.68;59.45
38852;BME280;24605;50.092;9.182;2023-07-13T06:39:32;98003.44;;;18.66;57.60
38852;BME280;24605;50.092;9.182;2023-07-13T06:41:59;98010.19;;;18.69;58.38
38852;BME280;24605;50.092;9.182;2023-07-13T06:44:25;98009.72;;;18.72;58.38
38852;BME280;24605;50.092;9.182;2023-07-13T06:46:53;98014.66;;;18.68;56.54
38852;BME280;24605;50.092;9.182;2023-07-13T06:49:20;98030.78;;;18.48;57.25
38852;BME280;24605;50.092;9.182;2023-07-13T06:51:46;98020.59;;;18.45;57.29
38852;BME280;24605;50.092;9.182;2023-07-13T06:54:13;98022.56;;;18.56;56.87
38852;BME280;24605;50.092;9.182;2023-07-13T06:56:39;98026.03;;;18.75;57.02
38852;BME280;24605;50.092;9.182;2023-07-13T06:59:06;98030.38;;;18.70;55.77
38852;BME280;24605;50.092;9.182;2023-07-13T07:01:32;98028.78;;;18.69;55.61
38852;BME280;24605;50.092;9.182;2023-07-13T07:04:00;98023.84;;;18.72;55.49
38852;BME280;24605;50.092;9.182;2023-07-13T07:06:26;98026.72;;;18.89;55.54
38852;BME280;24605;50.092;9.182;2023-07-13T07:08:53;98030.03;;;18.85;54.60
38852;BME280;24605;50.092;9.182;2023-07-13T07:11:22;98030.63;;;18.87;54.14
38852;BME280;24605;50.092;9.182;2023-07-13T07:13:49;98036.47;;;18.77;54.76
38852;BME280;24605;50.092;9.182;2023-07-13T07:16:16;98037.31;;;18.71;55.01
38852;BME280;24605;50.092;9.182;2023-07-13T07:18:42;98037.72;;;18.93;54.17
38852;BME280;24605;50.092;9.182;2023-07-13T07:21:10;98036.81;;;18.81;55.30
38852;BME280;24605;50.092;9.182;2023-07-13T07:23:37;98036.75;;;18.69;55.60
38852;BME280;24605;50.092;9.182;2023-07-13T07:26:03;98036.47;;;18.77;55.71
38852;BME280;24605;50.092;9.182;2023-07-13T07:28:30;98033.06;;;18.88;55.60
38852;BME280;24605;50.092;9.182;2023-07-13T07:30:57;98031.50;;;18.81;55.12
38852;BME280;24605;50.092;9.182;2023-07-13T07:33:24;97989.84;;;18.56;55.63
38852;BME280;24605;50.092;9.182;2023-07-13T07:35:51;98036.53;;;18.89;56.10
38852;BME280;24605;50.092;9.182;2023-07-13T07:38:19;98036.03;;;19.17;55.20
38852;BME280;24605;50.092;9.182;2023-07-13T07:40:46;98028.38;;;19.28;55.37
38852;BME280;24605;50.092;9.182;2023-07-13T07:43:13;98033.97;;;19.38;54.89
38852;BME280;24605;50.092;9.182;2023-07-13T07:45:40;98037.94;;;19.47;54.57
38852;BME280;24605;50.092;9.182;2023-07-13T07:48:07;98034.63;;;19.52;54.01
38852;BME280;24605;50.092;9.182;2023-07-13T07:50:34;98023.06;;;19.58;54.23
38852;BME280;24605;50.092;9.182;2023-07-13T07:53:01;98011.56;;;19.76;54.05
38852;BME280;24605;50.092;9.182;2023-07-13T07:55:29;98040.19;;;19.93;51.42
38852;BME280;24605;50.092;9.182;2023-07-13T07:57:56;98028.25;;;19.83;51.31
38852;BME280;24605;50.092;9.182;2023-07-13T08:00:23;98013.50;;;19.69;50.70
38852;BME280;24605;50.092;9.182;2023-07-13T08:02:49;98027.06;;;19.79;50.42
38852;BME280;24605;50.092;9.182;2023-07-13T08:05:16;98048.31;;;19.98;48.51
38852;BME280;24605;50.092;9.182;2023-07-13T08:07:43;98042.28;;;19.91;49.42
38852;BME280;24605;50.092;9.182;2023-07-13T08:10:09;98049.38;;;20.09;49.96
38852;BME280;24605;50.092;9.182;2023-07-13T08:12:38;98046.28;;;20.24;48.37
38852;BME280;24605;50.092;9.182;2023-07-13T08:15:06;98041.41;;;20.20;47.60
38852;BME280;24605;50.092;9.182;2023-07-13T08:17:35;98050.03;;;19.92;48.08
38852;BME280;24605;50.092;9.182;2023-07-13T08:20:02;98061.00;;;20.26;47.67
38852;BME280;24605;50.092;9.182;2023-07-13T08:22:29;98044.41;;;20.12;47.12
38852;BME280;24605;50.092;9.182;2023-07-13T08:24:55;98049.78;;;20.36;47.85
38852;BME280;24605;50.092;9.182;2023-07-13T08:27:22;98052.31;;;20.31;47.91
38852;BME280;24605;50.092;9.182;2023-07-13T08:29:50;98044.81;;;20.40;48.24
38852;BME280;24605;50.092;9.182;2023-07-13T08:32:17;98044.59;;;20.41;47.44
38852;BME280;24605;50.092;9.182;2023-07-13T08:34:44;98024.66;;;20.44;48.53
38852;BME280;24605;50.092;9.182;2023-07-13T08:37:10;98039.84;;;20.79;48.35
38852;BME280;24605;50.092;9.182;2023-07-13T08:39:37;98039.06;;;20.78;47.93
38852;BME280;24605;50.092;9.182;2023-07-13T08:42:26;98038.56;;;20.81;47.60
38852;BME280;24605;50.092;9.182;2023-07-13T08:45:04;98037.72;;;21.17;47.63
38852;BME280;24605;50.092;9.182;2023-07-13T08:47:38;98037.25;;;21.20;46.98
38852;BME280;24605;50.092;9.182;2023-07-13T08:50:11;98041.47;;;20.92;46.01
38852;BME280;24605;50.092;9.182;2023-07-13T08:52:42;98040.50;;;21.22;46.36
38852;BME280;24605;50.092;9.182;2023-07-13T08:55:13;98044.84;;;21.40;45.39
38852;BME280;24605;50.092;9.182;2023-07-13T08:57:42;98050.31;;;21.33;45.19
38852;BME280;24605;50.092;9.182;2023-07-13T09:00:12;98048.22;;;21.35;44.39
38852;BME280;24605;50.092;9.182;2023-07-13T09:02:44;98031.44;;;21.23;43.90
38852;BME280;24605;50.092;9.182;2023-07-13T09:05:14;98049.56;;;21.50;44.13
38852;BME280;24605;50.092;9.182;2023-07-13T09:07:55;98038.97;;;21.26;45.41
38852;BME280;24605;50.092;9.182;2023-07-13T09:10:27;98031.47;;;21.64;44.88
38852;BME280;24605;50.092;9.182;2023-07-13T09:13:04;98041.78;;;21.60;43.93
38852;BME280;24605;50.092;9.182;2023-07-13T09:15:37;98038.13;;;21.37;43.38
38852;BME280;24605;50.092;9.182;2023-07-13T09:18:10;98049.47;;;21.44;43.58
38852;BME280;24605;50.092;9.182;2023-07-13T09:20:41;98030.06;;;21.49;43.71
38852;BME280;24605;50.092;9.182;2023-07-13T09:23:14;98042.22;;;21.69;43.64
38852;BME280;24605;50.092;9.182;2023-07-13T09:25:45;98046.19;;;21.54;42.60
38852;BME280;24605;50.092;9.182;2023-07-13T09:28:16;98038.78;;;21.44;42.93
38852;BME280;24605;50.092;9.182;2023-07-13T09:30:50;98035.47;;;21.37;43.41
38852;BME280;24605;50.092;9.182;2023-07-13T09:33:18;98031.13;;;21.19;43.56
38852;BME280;24605;50.092;9.182;2023-07-13T09:35:45;98043.09;;;21.45;43.76
38852;BME280;24605;50.092;9.182;2023-07-13T09:38:13;98026.59;;;21.60;43.84
38852;BME280;24605;50.092;9.182;2023-07-13T09:40:46;98033.03;;;21.77;43.89
38852;BME280;24605;50.092;9.182;2023-07-13T09:43:16;98043.72;;;21.94;43.83
38852;BME280;24605;50.092;9.182;2023-07-13T09:45:47;98037.19;;;22.18;43.71
38852;BME280;24605;50.092;9.182;2023-07-13T09:48:14;98039.28;;;22.33;42.09
38852;BME280;24605;50.092;9.182;2023-07-13T09:50:42;98035.66;;;22.22;42.49
38852;BME280;24605;50.092;9.182;2023-07-13T09:53:13;98041.00;;;22.57;42.59
38852;BME280;24605;50.092;9.182;2023-07-13T09:55:41;98037.19;;;22.69;42.13
38852;BME280;24605;50.092;9.182;2023-07-13T09:58:11;98039.53;;;22.66;41.74
38852;BME280;24605;50.092;9.182;2023-07-13T10:00:38;98045.88;;;22.60;43.21
38852;BME280;24605;50.092;9.182;2023-07-13T10:03:17;98043.94;;;22.55;40.64
38852;BME280;24605;50.092;9.182;2023-07-13T10:05:46;98042.84;;;22.39;41.89
38852;BME280;24605;50.092;9.182;2023-07-13T10:08:18;98044.34;;;22.47;42.80
38852;BME280;24605;50.092;9.182;2023-07-13T10:10:45;98045.63;;;22.78;42.12
38852;BME280;24605;50.092;9.182;2023-07-13T10:13:26;98039.31;;;22.90;40.12
38852;BME280;24605;50.092;9.182;2023-07-13T10:15:54;98049.97;;;22.84;41.06
38852;BME280;24605;50.092;9.182;2023-07-13T10:18:23;98057.75;;;23.08;41.54
38852;BME280;24605;50.092;9.182;2023-07-13T10:20:54;98047.22;;;23.01;41.01
38852;BME280;24605;50.092;9.182;2023-07-13T10:23:24;98054.44;;;23.18;40.56
38852;BME280;24605;50.092;9.182;2023-07-13T10:25:54;98045.72;;;23.50;40.55
38852;BME280;24605;50.092;9.182;2023-07-13T10:28:27;98054.84;;;23.54;40.06
38852;BME280;24605;50.092;9.182;2023-07-13T10:30:56;98043.84;;;23.28;39.94
38852;BME280;24605;50.092;9.182;2023-07-13T10:33:26;98052.94;;;23.27;40.18
38852;BME280;24605;50.092;9.182;2023-07-13T10:36:03;98045.44;;;23.07;40.63
38852;BME280;24605;50.092;9.182;2023-07-13T10:38:32;98051.78;;;23.18;37.65
38852;BME280;24605;50.092;9.182;2023-07-13T10:41:02;98047.28;;;23.24;37.36
38852;BME280;24605;50.092;9.182;2023-07-13T10:43:34;98011.41;;;23.03;37.78
38852;BME280;24605;50.092;9.182;2023-07-13T10:46:04;98039.63;;;23.55;36.70
38852;BME280;24605;50.092;9.182;2023-07-13T10:48:35;98033.81;;;23.63;35.47
38852;BME280;24605;50.092;9.182;2023-07-13T10:51:03;98050.63;;;23.58;36.36
38852;BME280;24605;50.092;9.182;2023-07-13T10:53:34;98040.44;;;23.83;35.62
38852;BME280;24605;50.092;9.182;2023-07-13T10:56:03;98055.38;;;23.51;35.79
38852;BME280;24605;50.092;9.182;2023-07-13T10:58:35;98052.44;;;23.53;35.18
38852;BME280;24605;50.092;9.182;2023-07-13T11:01:08;98053.03;;;23.60;35.53
38852;BME280;24605;50.092;9.182;2023-07-13T11:03:47;98052.72;;;23.56;35.85
38852;BME280;24605;50.092;9.182;2023-07-13T11:06:32;98059.59;;;23.47;35.97
38852;BME280;24605;50.092;9.182;2023-07-13T11:09:18;98054.97;;;23.65;36.47
38852;BME280;24605;50.092;9.182;2023-07-13T11:11:45;98036.97;;;23.33;36.03
38852;BME280;24605;50.092;9.182;2023-07-13T11:14:27;98055.56;;;23.22;34.84
38852;BME280;24605;50.092;9.182;2023-07-13T11:16:55;98038.25;;;23.08;35.06
38852;BME280;24605;50.092;9.182;2023-07-13T11:19:40;98042.44;;;23.21;36.08
38852;BME280;24605;50.092;9.182;2023-07-13T11:22:13;98037.41;;;23.24;36.23
38852;BME280;24605;50.092;9.182;2023-07-13T11:25:00;98043.06;;;23.28;36.66
38852;BME280;24605;50.092;9.182;2023-07-13T11:27:39;98042.16;;;23.44;34.90
38852;BME280;24605;50.092;9.182;2023-07-13T11:33:13;98045.63;;;23.67;33.65
38852;BME280;24605;50.092;9.182;2023-07-13T11:35:46;98042.50;;;23.75;34.12
38852;BME280;24605;50.092;9.182;2023-07-13T11:38:17;98040.88;;;23.74;35.10
38852;BME280;24605;50.092;9.182;2023-07-13T11:40:46;98038.91;;;23.65;34.92
38852;BME280;24605;50.092;9.182;2023-07-13T11:43:14;98024.00;;;23.74;34.40
38852;BME280;24605;50.092;9.182;2023-07-13T11:45:42;98039.69;;;23.87;34.12
38852;BME280;24605;50.092;9.182;2023-07-13T11:48:23;98034.75;;;24.01;33.61
38852;BME280;24605;50.092;9.182;2023-07-13T11:50:56;98051.91;;;24.05;33.42
38852;BME280;24605;50.092;9.182;2023-07-13T11:53:26;98035.38;;;23.86;34.47
38852;BME280;24605;50.092;9.182;2023-07-13T11:55:53;98053.78;;;24.05;33.75
38852;BME280;24605;50.092;9.182;2023-07-13T11:58:23;98052.41;;;23.75;34.42
38852;BME280;24605;50.092;9.182;2023-07-13T12:00:51;98050.38;;;23.38;34.71
38852;BME280;24605;50.092;9.182;2023-07-13T12:03:20;98040.38;;;23.50;34.76
38852;BME280;24605;50.092;9.182;2023-07-13T12:05:58;98033.19;;;23.56;34.41
38852;BME280;24605;50.092;9.182;2023-07-13T12:08:26;98032.50;;;23.66;34.71
38852;BME280;24605;50.092;9.182;2023-07-13T12:11:00;98037.94;;;23.76;35.12
38852;BME280;24605;50.092;9.182;2023-07-13T12:13:35;98039.81;;;23.48;34.90
38852;BME280;24605;50.092;9.182;2023-07-13T12:16:02;98039.16;;;23.63;35.07
38852;BME280;24605;50.092;9.182;2023-07-13T12:18:34;98039.06;;;24.07;34.57
38852;BME280;24605;50.092;9.182;2023-07-13T12:21:03;98043.97;;;23.88;34.99
38852;BME280;24605;50.092;9.182;2023-07-13T12:23:31;98057.16;;;23.95;34.75
38852;BME280;24605;50.092;9.182;2023-07-13T12:26:01;98050.06;;;24.06;34.60
38852;BME280;24605;50.092;9.182;2023-07-13T12:28:34;98043.59;;;24.39;33.78
38852;BME280;24605;50.092;9.182;2023-07-13T12:33:45;98038.72;;;24.69;33.46
38852;BME280;24605;50.092;9.182;2023-07-13T12:36:13;98041.66;;;24.30;34.05
38852;BME280;24605;50.092;9.182;2023-07-13T12:38:39;98042.03;;;24.06;34.15
38852;BME280;24605;50.092;9.182;2023-07-13T12:41:08;98039.06;;;24.07;33.99
38852;BME280;24605;50.092;9.182;2023-07-13T12:43:36;98044.06;;;23.99;33.90
38852;BME280;24605;50.092;9.182;2023-07-13T12:46:05;98054.47;;;23.95;33.97
38852;BME280;24605;50.092;9.182;2023-07-13T12:48:42;98066.03;;;23.96;33.75
38852;BME280;24605;50.092;9.182;2023-07-13T12:51:13;98050.09;;;23.84;34.25
38852;BME280;24605;50.092;9.182;2023-07-13T12:53:41;98049.53;;;23.82;33.68
38852;BME280;24605;50.092;9.182;2023-07-13T12:56:16;98049.81;;;23.58;34.39
38852;BME280;24605;50.092;9.182;2023-07-13T12:58:45;98056.69;;;23.76;33.90
38852;BME280;24605;50.092;9.182;2023-07-13T13:01:20;98046.25;;;23.74;34.21
38852;BME280;24605;50.092;9.182;2023-07-13T13:03:49;98054.88;;;23.82;34.14
38852;BME280;24605;50.092;9.182;2023-07-13T13:06:31;98039.06;;;23.80;34.25
38852;BME280;24605;50.092;9.182;2023-07-13T13:08:58;98022.59;;;23.66;33.97
38852;BME280;24605;50.092;9.182;2023-07-13T13:11:28;98053.44;;;23.74;34.60
38852;BME280;24605;50.092;9.182;2023-07-13T13:13:55;98058.25;;;23.72;34.56